Terminal Aerodrome Forecast
Issued by NWS

Home | Current Version | Previous Version | Text Only | Print | Product List | Glossary On
Versions: 1 2 3 4 5 6 7 8 9 10 11 12 13 14 15 16 17 18 19 20 21 22 23 24 25 26 27 28 29 30 31 32 33 34 35 36 37 38 39 40 41 42 43 44 45 46 47 48 49 50
000
FTUS44 KLIX 271123
TAFHUM
TAF
KHUM 271123Z 2712/2812 VRB04KT P6SM BKN015
     FM271500 17010KT P6SM BKN030
     FM271800 18013KT P6SM SCT090
     FM280200 18006KT P6SM BKN030
     FM280600 18005KT 4SM BR BKN010=

USA.gov is the U.S. government's official web portal to all federal, state and local government web resources and services.